Nearby METAR Reports

 

KPRB - Paso Robles, California, USA
Distance from station: SW 1mi, 1km
Updated: 05/22/2015 12:53pm
Few Clouds
Few Clouds
 Wind from NW
Wind: NW 7 mph , 11 km/h
Temperature: 72°F , 22°C
Dew Point: 45°F , 7°C
Humidity: 38%
Barometer: 30.00 inHg , 1015.9 hPa
Clouds: Few Clouds
Visibility: 10 miles , 16 km
Cloud details: Few Clouds 5000 ft
2015/05/22 19:53 KPRB 221953Z AUTO 32006KT 10SM FEW050 22/07 A3000 RMK AO2 SLP153 T02220067 TSNO
KSBP - San Luis Obispo, California, USA
Distance from station: S 30mi, 49km
Updated: 05/22/2015 12:56pm
Partly cloudy
Partly cloudy
 Wind from NW
Wind: NW 15 mph , 24 km/h
Temperature: 70°F , 21°C
Dew Point: 48°F , 9°C
Humidity: 46%
Barometer: 30.02 inHg , 1016.6 hPa
Clouds: Partly cloudy
Visibility: 10 miles , 16 km
Cloud details: Partly cloudy 3400 ft
2015/05/22 19:56 KSBP 221956Z 31013KT 10SM SCT034 21/09 A3002 RMK AO2 SLP165 T02060089
 
KSMX - Santa Maria, California, USA
Distance from station: S 54mi, 87km
Updated: 05/22/2015 12:51pm
Partly cloudy
Partly cloudy
 Wind from NW
Wind: NW 14 mph , 22 km/h, Gust: 20 mph , 31 km/h
Temperature: 70°F , 21°C
Dew Point: 48°F , 9°C
Humidity: 46%
Barometer: 30.03 inHg , 1016.9 hPa
Clouds: Partly cloudy
Visibility: 10 miles , 16 km
Cloud details: Partly cloudy 3000 ft
2015/05/22 19:51 KSMX 221951Z 31012G17KT 10SM SCT030 21/09 A3003 RMK AO2 SLP170 T02110094
KNLC - Lemoore Nas/Reev, California, USA
Distance from station: NE 58mi, 94km
Updated: 05/22/2015 12:56pm
Mostly cloudy
Mostly cloudy
 Wind from N
Wind: N 9 mph , 15 km/h
Temperature: 70°F , 21°C
Dew Point: 45°F , 7°C
Humidity: 40%
Barometer: 30.00 inHg , 1015.9 hPa
Clouds: Mostly cloudy
Visibility: 10 miles , 16 km
Cloud details: Few Clouds 3500 ft
Partly cloudy 6500 ft
Mostly cloudy 11000 ft
Mostly cloudy 15000 ft
2015/05/22 19:56 KNLC 221956Z 35008KT 10SM FEW035 SCT065 BKN110 BKN150 21/07 A3000 RMK AO2 SLP159 RH/41 T02060067
 
KVBG - Vandenberg Afb, California, USA
Distance from station: S 65mi, 105km
Updated: 05/22/2015 12:58pm
Clear
Clear
 Wind from WNW
Wind: WNW 13 mph , 20 km/h
Temperature: 64°F , 18°C
Dew Point: 50°F , 10°C
Humidity: 60%
Barometer: 30.04 inHg , 1017.3 hPa
Clouds: Clear
Visibility: 10 miles , 16 km
2015/05/22 19:58 KVBG 221958Z AUTO 30011KT 10SM CLR 18/10 A3004 RMK AO2 SLP175 T01790102 TSNO
KLPC - Lompoc, California, USA
Distance from station: S 70mi, 113km
Updated: 05/22/2015 12:55pm
Clear
Clear
 Wind from W
Wind: W 17 mph , 28 km/h, Gust: 23 mph , 37 km/h
Temperature: 68°F , 20°C
Dew Point: 48°F , 9°C
Humidity: 49%
Barometer: 30.04 inHg , 1017.3 hPa
Clouds: Clear
Visibility: 10 miles , 16 km
2015/05/22 19:55 KLPC 221955Z AUTO 27015G20KT 10SM CLR 20/09 A3004 RMK AO1
 
KHJO - Hanford, California, USA
Distance from station: NE 72mi, 116km
Updated: 05/22/2015 12:53pm
Partly cloudy
Partly cloudy
 Wind from NE
Wind: NE 8 mph , 13 km/h
Temperature: 70°F , 21°C
Dew Point: 48°F , 9°C
Humidity: 46%
Barometer: 30.01 inHg , 1016.3 hPa
Clouds: Partly cloudy
Visibility: 10 miles , 16 km
Cloud details: Partly cloudy 3900 ft
2015/05/22 19:53 KHJO 221953Z AUTO 05007KT 360V090 10SM SCT039 21/09 A3001 RMK AO2 SLP162 T02110089